sensor_id;sensor_type;location;lat;lon;timestamp;pressure;altitude;pressure_sealevel;temperature;humidity
62544;BME280;48597;49.030;1.822;2023-07-31T00:01:53;100763.97;;;24.96;49.75
62544;BME280;48597;49.030;1.822;2023-07-31T00:04:18;100761.09;;;24.96;49.82
62544;BME280;48597;49.030;1.822;2023-07-31T00:06:43;100753.72;;;24.95;49.66
62544;BME280;48597;49.030;1.822;2023-07-31T00:09:09;100749.25;;;24.93;49.72
62544;BME280;48597;49.030;1.822;2023-07-31T00:11:34;100742.69;;;24.93;49.68
62544;BME280;48597;49.030;1.822;2023-07-31T00:14:00;100751.31;;;24.93;49.69
62544;BME280;48597;49.030;1.822;2023-07-31T00:16:25;100752.63;;;24.92;49.81
62544;BME280;48597;49.030;1.822;2023-07-31T00:18:51;100746.84;;;24.92;49.57
62544;BME280;48597;49.030;1.822;2023-07-31T00:21:16;100748.13;;;24.91;49.79
62544;BME280;48597;49.030;1.822;2023-07-31T00:23:41;100751.00;;;24.91;49.66
62544;BME280;48597;49.030;1.822;2023-07-31T00:26:07;100746.53;;;24.90;49.88
62544;BME280;48597;49.030;1.822;2023-07-31T00:28:32;100755.19;;;24.90;49.82
62544;BME280;48597;49.030;1.822;2023-07-31T00:30:58;100751.50;;;24.89;49.77
62544;BME280;48597;49.030;1.822;2023-07-31T00:33:23;100738.38;;;24.88;49.70
62544;BME280;48597;49.030;1.822;2023-07-31T00:35:49;100739.66;;;24.87;49.70
62544;BME280;48597;49.030;1.822;2023-07-31T00:38:14;100738.84;;;24.87;49.82
62544;BME280;48597;49.030;1.822;2023-07-31T00:40:39;100738.84;;;24.87;49.84
62544;BME280;48597;49.030;1.822;2023-07-31T00:43:05;100722.84;;;24.86;49.65
62544;BME280;48597;49.030;1.822;2023-07-31T00:45:31;100732.28;;;24.86;49.69
62544;BME280;48597;49.030;1.822;2023-07-31T00:47:56;100725.72;;;24.86;49.77
62544;BME280;48597;49.030;1.822;2023-07-31T00:50:24;100719.97;;;24.86;49.62
62544;BME280;48597;49.030;1.822;2023-07-31T00:52:50;100716.28;;;24.85;49.61
62544;BME280;48597;49.030;1.822;2023-07-31T00:55:16;100712.59;;;24.85;49.74
62544;BME280;48597;49.030;1.822;2023-07-31T00:57:41;100709.72;;;24.85;49.96
62544;BME280;48597;49.030;1.822;2023-07-31T01:00:07;100698.66;;;24.83;49.68
62544;BME280;48597;49.030;1.822;2023-07-31T01:02:33;100699.47;;;24.84;49.59
62544;BME280;48597;49.030;1.822;2023-07-31T01:04:59;100706.50;;;24.83;49.81
62544;BME280;48597;49.030;1.822;2023-07-31T01:07:35;100698.66;;;24.83;49.81
62544;BME280;48597;49.030;1.822;2023-07-31T01:10:10;100691.31;;;24.82;49.68
62544;BME280;48597;49.030;1.822;2023-07-31T01:12:38;100703.31;;;24.81;49.75
62544;BME280;48597;49.030;1.822;2023-07-31T01:15:08;100697.56;;;24.81;49.82
62544;BME280;48597;49.030;1.822;2023-07-31T01:17:38;100698.06;;;24.79;49.78
62544;BME280;48597;49.030;1.822;2023-07-31T01:20:07;100701.72;;;24.80;49.76
62544;BME280;48597;49.030;1.822;2023-07-31T01:28:05;100692.00;;;24.77;49.88
62544;BME280;48597;49.030;1.822;2023-07-31T01:30:35;100688.31;;;24.77;49.70
62544;BME280;48597;49.030;1.822;2023-07-31T01:33:03;100694.06;;;24.77;49.87
62544;BME280;48597;49.030;1.822;2023-07-31T01:35:36;100696.97;;;24.77;49.82
62544;BME280;48597;49.030;1.822;2023-07-31T01:38:02;100698.25;;;24.76;49.90
62544;BME280;48597;49.030;1.822;2023-07-31T01:40:27;100693.28;;;24.76;49.80
62544;BME280;48597;49.030;1.822;2023-07-31T01:42:53;100690.88;;;24.75;49.86
62544;BME280;48597;49.030;1.822;2023-07-31T01:45:18;100698.72;;;24.74;49.82
62544;BME280;48597;49.030;1.822;2023-07-31T01:47:43;100699.53;;;24.75;49.87
62544;BME280;48597;49.030;1.822;2023-07-31T01:50:09;100700.00;;;24.73;49.82
62544;BME280;48597;49.030;1.822;2023-07-31T01:52:34;100699.22;;;24.73;49.93
62544;BME280;48597;49.030;1.822;2023-07-31T01:55:00;100692.66;;;24.72;49.83
62544;BME280;48597;49.030;1.822;2023-07-31T01:57:25;100680.31;;;24.72;49.91
62544;BME280;48597;49.030;1.822;2023-07-31T01:59:51;100686.09;;;24.72;49.81
62544;BME280;48597;49.030;1.822;2023-07-31T02:02:18;100679.53;;;24.71;49.82
62544;BME280;48597;49.030;1.822;2023-07-31T02:04:44;100679.53;;;24.71;49.90
62544;BME280;48597;49.030;1.822;2023-07-31T02:07:09;100677.94;;;24.70;49.88
62544;BME280;48597;49.030;1.822;2023-07-31T02:09:34;100671.38;;;24.70;49.94
62544;BME280;48597;49.030;1.822;2023-07-31T02:12:00;100661.91;;;24.69;49.91
62544;BME280;48597;49.030;1.822;2023-07-31T02:14:25;100662.72;;;24.70;49.94
62544;BME280;48597;49.030;1.822;2023-07-31T02:16:50;100660.31;;;24.68;49.99
62544;BME280;48597;49.030;1.822;2023-07-31T02:19:16;100653.75;;;24.68;49.94
62544;BME280;48597;49.030;1.822;2023-07-31T02:21:41;100643.03;;;24.68;49.98
62544;BME280;48597;49.030;1.822;2023-07-31T02:24:06;100650.06;;;24.67;50.01
62544;BME280;48597;49.030;1.822;2023-07-31T02:26:32;100637.78;;;24.67;49.83
62544;BME280;48597;49.030;1.822;2023-07-31T02:28:57;100629.13;;;24.67;50.00
62544;BME280;48597;49.030;1.822;2023-07-31T02:31:23;100640.66;;;24.67;49.97
62544;BME280;48597;49.030;1.822;2023-07-31T02:33:48;100646.44;;;24.67;49.93
62544;BME280;48597;49.030;1.822;2023-07-31T02:36:13;100648.50;;;24.66;49.91
62544;BME280;48597;49.030;1.822;2023-07-31T02:38:39;100644.03;;;24.65;50.03
62544;BME280;48597;49.030;1.822;2023-07-31T02:41:05;100633.31;;;24.66;49.93
62544;BME280;48597;49.030;1.822;2023-07-31T02:43:30;100628.81;;;24.65;49.97
62544;BME280;48597;49.030;1.822;2023-07-31T02:45:56;100633.00;;;24.64;50.04
62544;BME280;48597;49.030;1.822;2023-07-31T02:48:21;100624.34;;;24.64;49.94
62544;BME280;48597;49.030;1.822;2023-07-31T02:50:47;100635.88;;;24.64;49.98
62544;BME280;48597;49.030;1.822;2023-07-31T02:53:13;100627.22;;;24.64;49.90
62544;BME280;48597;49.030;1.822;2023-07-31T02:55:38;100619.06;;;24.62;49.84
62544;BME280;48597;49.030;1.822;2023-07-31T02:58:04;100625.63;;;24.63;50.00
62544;BME280;48597;49.030;1.822;2023-07-31T03:00:29;100619.06;;;24.62;49.93
62544;BME280;48597;49.030;1.822;2023-07-31T03:02:55;100624.03;;;24.62;49.74
62544;BME280;48597;49.030;1.822;2023-07-31T03:05:20;100629.78;;;24.62;50.07
62544;BME280;48597;49.030;1.822;2023-07-31T03:07:46;100625.31;;;24.61;50.00
62544;BME280;48597;49.030;1.822;2023-07-31T03:10:11;100631.09;;;24.61;50.02
62544;BME280;48597;49.030;1.822;2023-07-31T03:12:37;100639.72;;;24.61;49.99
62544;BME280;48597;49.030;1.822;2023-07-31T03:15:03;100628.19;;;24.61;49.88
62544;BME280;48597;49.030;1.822;2023-07-31T03:17:28;100619.56;;;24.61;49.89
62544;BME280;48597;49.030;1.822;2023-07-31T03:19:54;100613.47;;;24.58;49.98
62544;BME280;48597;49.030;1.822;2023-07-31T03:22:19;100602.75;;;24.59;49.77
62544;BME280;48597;49.030;1.822;2023-07-31T03:24:45;100613.47;;;24.58;49.95
62544;BME280;48597;49.030;1.822;2023-07-31T03:27:10;100600.34;;;24.57;50.02
62544;BME280;48597;49.030;1.822;2023-07-31T03:29:35;100599.56;;;24.57;49.87
62544;BME280;48597;49.030;1.822;2023-07-31T03:32:01;100592.19;;;24.56;49.96
62544;BME280;48597;49.030;1.822;2023-07-31T03:34:26;100593.00;;;24.56;50.02
62544;BME280;48597;49.030;1.822;2023-07-31T03:36:52;100593.00;;;24.56;49.89
62544;BME280;48597;49.030;1.822;2023-07-31T03:39:18;100588.50;;;24.55;49.85
62544;BME280;48597;49.030;1.822;2023-07-31T03:41:43;100593.47;;;24.55;49.99
62544;BME280;48597;49.030;1.822;2023-07-31T03:44:09;100590.59;;;24.55;49.95
62544;BME280;48597;49.030;1.822;2023-07-31T03:46:34;100594.75;;;24.54;49.92
62544;BME280;48597;49.030;1.822;2023-07-31T03:49:01;100593.47;;;24.55;50.06
62544;BME280;48597;49.030;1.822;2023-07-31T03:51:26;100599.75;;;24.53;49.97
62544;BME280;48597;49.030;1.822;2023-07-31T03:53:51;100599.75;;;24.53;49.91
62544;BME280;48597;49.030;1.822;2023-07-31T03:56:17;100588.22;;;24.53;50.08
62544;BME280;48597;49.030;1.822;2023-07-31T03:58:43;100587.44;;;24.53;49.73
62544;BME280;48597;49.030;1.822;2023-07-31T04:01:08;100583.75;;;24.52;50.07
62544;BME280;48597;49.030;1.822;2023-07-31T04:03:34;100585.03;;;24.51;49.82
62544;BME280;48597;49.030;1.822;2023-07-31T04:06:00;100580.88;;;24.52;49.91
62544;BME280;48597;49.030;1.822;2023-07-31T04:08:25;100578.47;;;24.51;50.06
62544;BME280;48597;49.030;1.822;2023-07-31T04:10:51;100574.81;;;24.50;50.00
62544;BME280;48597;49.030;1.822;2023-07-31T04:13:16;100574.81;;;24.50;49.90
62544;BME280;48597;49.030;1.822;2023-07-31T04:15:41;100574.81;;;24.50;49.97
62544;BME280;48597;49.030;1.822;2023-07-31T04:18:07;100574.00;;;24.50;49.88
62544;BME280;48597;49.030;1.822;2023-07-31T04:20:32;100571.59;;;24.48;49.80
62544;BME280;48597;49.030;1.822;2023-07-31T04:22:58;100578.16;;;24.49;49.85
62544;BME280;48597;49.030;1.822;2023-07-31T04:25:23;100574.50;;;24.48;49.95
62544;BME280;48597;49.030;1.822;2023-07-31T04:27:49;100574.50;;;24.48;49.95
62544;BME280;48597;49.030;1.822;2023-07-31T04:30:14;100581.53;;;24.47;50.05
62544;BME280;48597;49.030;1.822;2023-07-31T04:32:40;100584.41;;;24.47;50.10
62544;BME280;48597;49.030;1.822;2023-07-31T04:35:05;100580.25;;;24.48;50.14
62544;BME280;48597;49.030;1.822;2023-07-31T04:37:31;100577.84;;;24.47;50.12
62544;BME280;48597;49.030;1.822;2023-07-31T04:39:56;100574.19;;;24.46;50.26
62544;BME280;48597;49.030;1.822;2023-07-31T04:42:22;100579.16;;;24.46;50.11
62544;BME280;48597;49.030;1.822;2023-07-31T04:44:47;100577.06;;;24.46;50.32
62544;BME280;48597;49.030;1.822;2023-07-31T04:47:13;100575.47;;;24.45;50.19
62544;BME280;48597;49.030;1.822;2023-07-31T04:49:38;100581.72;;;24.44;50.25
62544;BME280;48597;49.030;1.822;2023-07-31T04:52:04;100579.63;;;24.44;50.22
62544;BME280;48597;49.030;1.822;2023-07-31T04:54:29;100582.50;;;24.44;50.36
62544;BME280;48597;49.030;1.822;2023-07-31T04:56:55;100595.31;;;24.43;50.40
62544;BME280;48597;49.030;1.822;2023-07-31T04:59:21;100580.91;;;24.43;50.20
62544;BME280;48597;49.030;1.822;2023-07-31T05:01:47;100573.56;;;24.42;50.24
62544;BME280;48597;49.030;1.822;2023-07-31T05:04:13;100571.16;;;24.41;50.18
62544;BME280;48597;49.030;1.822;2023-07-31T05:06:39;100574.03;;;24.41;50.30
62544;BME280;48597;49.030;1.822;2023-07-31T05:09:05;100563.31;;;24.41;50.10
62544;BME280;48597;49.030;1.822;2023-07-31T05:11:30;100566.72;;;24.40;50.28
62544;BME280;48597;49.030;1.822;2023-07-31T05:13:55;100565.91;;;24.39;50.21
62544;BME280;48597;49.030;1.822;2023-07-31T05:16:21;100555.19;;;24.40;50.34
62544;BME280;48597;49.030;1.822;2023-07-31T05:18:47;100557.28;;;24.39;50.18
62544;BME280;48597;49.030;1.822;2023-07-31T05:21:12;100557.28;;;24.39;50.21
62544;BME280;48597;49.030;1.822;2023-07-31T05:23:38;100560.16;;;24.39;50.34
62544;BME280;48597;49.030;1.822;2023-07-31T05:26:04;100556.97;;;24.37;50.25
62544;BME280;48597;49.030;1.822;2023-07-31T05:28:30;100549.59;;;24.36;50.45
62544;BME280;48597;49.030;1.822;2023-07-31T05:31:04;100548.31;;;24.37;50.35
62544;BME280;48597;49.030;1.822;2023-07-31T05:33:30;100552.50;;;24.36;50.25
62544;BME280;48597;49.030;1.822;2023-07-31T05:35:56;100555.38;;;24.36;50.15
62544;BME280;48597;49.030;1.822;2023-07-31T05:38:22;100546.72;;;24.36;50.21
62544;BME280;48597;49.030;1.822;2023-07-31T05:40:47;100530.72;;;24.35;50.28
62544;BME280;48597;49.030;1.822;2023-07-31T05:43:13;100537.28;;;24.36;50.20
62544;BME280;48597;49.030;1.822;2023-07-31T05:45:39;100529.13;;;24.34;50.22
62544;BME280;48597;49.030;1.822;2023-07-31T05:48:05;100526.25;;;24.34;50.20
62544;BME280;48597;49.030;1.822;2023-07-31T05:50:31;100530.72;;;24.35;50.21
62544;BME280;48597;49.030;1.822;2023-07-31T05:52:57;100528.34;;;24.34;50.22
62544;BME280;48597;49.030;1.822;2023-07-31T05:55:22;100539.06;;;24.33;50.43
62544;BME280;48597;49.030;1.822;2023-07-31T05:57:48;100539.06;;;24.33;50.20
62544;BME280;48597;49.030;1.822;2023-07-31T06:00:14;100535.38;;;24.33;50.22
62544;BME280;48597;49.030;1.822;2023-07-31T06:02:40;100532.50;;;24.33;50.12
62544;BME280;48597;49.030;1.822;2023-07-31T06:05:05;100522.56;;;24.34;50.30
62544;BME280;48597;49.030;1.822;2023-07-31T06:07:32;100525.94;;;24.32;50.20
62544;BME280;48597;49.030;1.822;2023-07-31T06:09:57;100528.03;;;24.32;50.19
62544;BME280;48597;49.030;1.822;2023-07-31T06:12:28;100519.38;;;24.32;50.13
62544;BME280;48597;49.030;1.822;2023-07-31T06:14:54;100525.63;;;24.30;50.15
62544;BME280;48597;49.030;1.822;2023-07-31T06:17:20;100524.34;;;24.31;50.24
62544;BME280;48597;49.030;1.822;2023-07-31T06:19:46;100527.72;;;24.30;50.24
62544;BME280;48597;49.030;1.822;2023-07-31T06:22:12;100528.50;;;24.30;50.27
62544;BME280;48597;49.030;1.822;2023-07-31T06:24:37;100515.38;;;24.29;50.24
62544;BME280;48597;49.030;1.822;2023-07-31T06:27:03;100525.63;;;24.30;50.23
62544;BME280;48597;49.030;1.822;2023-07-31T06:29:29;100533.47;;;24.30;50.20
62544;BME280;48597;49.030;1.822;2023-07-31T06:31:55;100531.38;;;24.30;50.13
62544;BME280;48597;49.030;1.822;2023-07-31T06:34:20;100531.88;;;24.29;50.21
62544;BME280;48597;49.030;1.822;2023-07-31T06:36:46;100539.72;;;24.28;50.22
62544;BME280;48597;49.030;1.822;2023-07-31T06:39:11;100537.63;;;24.29;50.18
62544;BME280;48597;49.030;1.822;2023-07-31T06:41:37;100533.97;;;24.28;50.31
62544;BME280;48597;49.030;1.822;2023-07-31T06:44:03;100529.00;;;24.29;50.25
62544;BME280;48597;49.030;1.822;2023-07-31T06:46:28;100532.41;;;24.27;50.18
62544;BME280;48597;49.030;1.822;2023-07-31T06:48:53;100541.84;;;24.28;50.18
62544;BME280;48597;49.030;1.822;2023-07-31T06:51:19;100543.41;;;24.29;50.24
62544;BME280;48597;49.030;1.822;2023-07-31T06:53:45;100529.50;;;24.27;50.27
62544;BME280;48597;49.030;1.822;2023-07-31T06:56:10;100526.63;;;24.27;50.19
62544;BME280;48597;49.030;1.822;2023-07-31T06:58:36;100529.50;;;24.27;50.32
62544;BME280;48597;49.030;1.822;2023-07-31T07:01:01;100528.19;;;24.28;50.30
62544;BME280;48597;49.030;1.822;2023-07-31T07:03:27;100535.28;;;24.27;50.24
62544;BME280;48597;49.030;1.822;2023-07-31T07:05:52;100538.16;;;24.27;50.12
62544;BME280;48597;49.030;1.822;2023-07-31T07:08:18;100519.28;;;24.26;50.18
62544;BME280;48597;49.030;1.822;2023-07-31T07:10:43;100532.41;;;24.27;50.08
62544;BME280;48597;49.030;1.822;2023-07-31T07:13:09;100532.41;;;24.27;50.15
62544;BME280;48597;49.030;1.822;2023-07-31T07:15:34;100527.91;;;24.26;50.28
62544;BME280;48597;49.030;1.822;2023-07-31T07:18:00;100528.19;;;24.28;50.16
62544;BME280;48597;49.030;1.822;2023-07-31T07:20:25;100523.75;;;24.27;50.14
62544;BME280;48597;49.030;1.822;2023-07-31T07:22:51;100531.06;;;24.28;50.40
62544;BME280;48597;49.030;1.822;2023-07-31T07:25:16;100525.84;;;24.27;50.55
62544;BME280;48597;49.030;1.822;2023-07-31T07:27:42;100520.88;;;24.27;50.56
62544;BME280;48597;49.030;1.822;2023-07-31T07:30:07;100521.66;;;24.28;50.58
62544;BME280;48597;49.030;1.822;2023-07-31T07:32:33;100527.44;;;24.28;50.67
62544;BME280;48597;49.030;1.822;2023-07-31T07:34:58;100521.66;;;24.28;50.59
62544;BME280;48597;49.030;1.822;2023-07-31T07:37:23;100521.34;;;24.26;50.78
62544;BME280;48597;49.030;1.822;2023-07-31T07:39:49;100520.56;;;24.25;50.61
62544;BME280;48597;49.030;1.822;2023-07-31T07:42:15;100506.66;;;24.24;50.50
62544;BME280;48597;49.030;1.822;2023-07-31T07:44:40;100500.09;;;24.23;50.59
62544;BME280;48597;49.030;1.822;2023-07-31T07:47:06;100503.75;;;24.24;50.54
62544;BME280;48597;49.030;1.822;2023-07-31T07:49:33;100499.28;;;24.23;50.53
62544;BME280;48597;49.030;1.822;2023-07-31T07:51:59;100487.78;;;24.23;50.70
62544;BME280;48597;49.030;1.822;2023-07-31T07:54:24;100494.31;;;24.23;50.74
62544;BME280;48597;49.030;1.822;2023-07-31T07:56:49;100486.47;;;24.24;50.61
62544;BME280;48597;49.030;1.822;2023-07-31T07:59:15;100477.84;;;24.24;50.73
62544;BME280;48597;49.030;1.822;2023-07-31T08:01:40;100484.41;;;24.24;50.62
62544;BME280;48597;49.030;1.822;2023-07-31T08:04:06;100481.53;;;24.24;50.58
62544;BME280;48597;49.030;1.822;2023-07-31T08:06:31;100489.38;;;24.24;50.58
62544;BME280;48597;49.030;1.822;2023-07-31T08:08:57;100484.41;;;24.24;50.65
62544;BME280;48597;49.030;1.822;2023-07-31T08:11:22;100483.59;;;24.24;50.59
62544;BME280;48597;49.030;1.822;2023-07-31T08:13:49;100486.47;;;24.24;50.62
62544;BME280;48597;49.030;1.822;2023-07-31T08:16:14;100488.56;;;24.23;50.58
62544;BME280;48597;49.030;1.822;2023-07-31T08:18:39;100474.16;;;24.23;50.38
62544;BME280;48597;49.030;1.822;2023-07-31T08:21:05;100469.19;;;24.24;50.46
62544;BME280;48597;49.030;1.822;2023-07-31T08:23:31;100480.72;;;24.24;50.50
62544;BME280;48597;49.030;1.822;2023-07-31T08:25:56;100482.00;;;24.23;50.67
62544;BME280;48597;49.030;1.822;2023-07-31T08:28:22;100477.84;;;24.24;50.54
62544;BME280;48597;49.030;1.822;2023-07-31T08:30:47;100477.84;;;24.24;50.43
62544;BME280;48597;49.030;1.822;2023-07-31T08:33:13;100473.38;;;24.23;50.53
62544;BME280;48597;49.030;1.822;2023-07-31T08:35:38;100466.78;;;24.22;50.85
62544;BME280;48597;49.030;1.822;2023-07-31T08:38:03;100474.63;;;24.21;51.01
62544;BME280;48597;49.030;1.822;2023-07-31T08:40:29;100464.72;;;24.23;51.02
62544;BME280;48597;49.030;1.822;2023-07-31T08:42:55;100479.94;;;24.23;51.23
62544;BME280;48597;49.030;1.822;2023-07-31T08:45:27;100461.84;;;24.23;51.39
62544;BME280;48597;49.030;1.822;2023-07-31T08:47:54;100466.31;;;24.24;51.26
62544;BME280;48597;49.030;1.822;2023-07-31T08:50:21;100465.53;;;24.23;51.38
62544;BME280;48597;49.030;1.822;2023-07-31T08:52:47;100472.53;;;24.22;51.49
62544;BME280;48597;49.030;1.822;2023-07-31T08:55:14;100479.13;;;24.23;51.47
62544;BME280;48597;49.030;1.822;2023-07-31T08:57:39;100461.84;;;24.23;51.62
62544;BME280;48597;49.030;1.822;2023-07-31T09:00:08;100469.19;;;24.24;51.65
62544;BME280;48597;49.030;1.822;2023-07-31T09:05:29;100485.69;;;24.23;51.26
62544;BME280;48597;49.030;1.822;2023-07-31T09:07:55;100491.44;;;24.23;51.35
62544;BME280;48597;49.030;1.822;2023-07-31T09:10:21;100479.13;;;24.23;51.18
62544;BME280;48597;49.030;1.822;2023-07-31T09:12:48;100479.94;;;24.23;51.09
62544;BME280;48597;49.030;1.822;2023-07-31T09:15:14;100482.00;;;24.23;51.24
62544;BME280;48597;49.030;1.822;2023-07-31T09:17:40;100476.25;;;24.23;51.11
62544;BME280;48597;49.030;1.822;2023-07-31T09:20:19;100478.63;;;24.24;51.19
62544;BME280;48597;49.030;1.822;2023-07-31T09:22:45;100471.28;;;24.23;51.07
62544;BME280;48597;49.030;1.822;2023-07-31T09:25:15;100466.78;;;24.22;51.13
62544;BME280;48597;49.030;1.822;2023-07-31T09:27:54;100468.41;;;24.23;51.23
62544;BME280;48597;49.030;1.822;2023-07-31T09:30:21;100470.50;;;24.23;51.34
62544;BME280;48597;49.030;1.822;2023-07-31T09:32:48;100462.66;;;24.23;51.22
62544;BME280;48597;49.030;1.822;2023-07-31T09:35:19;100465.53;;;24.23;51.23
62544;BME280;48597;49.030;1.822;2023-07-31T09:37:53;100447.44;;;24.23;51.16
62544;BME280;48597;49.030;1.822;2023-07-31T09:40:48;100435.09;;;24.22;51.01
62544;BME280;48597;49.030;1.822;2023-07-31T09:43:20;100426.47;;;24.22;51.04
62544;BME280;48597;49.030;1.822;2023-07-31T09:45:46;100430.97;;;24.23;50.98
62544;BME280;48597;49.030;1.822;2023-07-31T09:48:14;100430.97;;;24.23;51.13
62544;BME280;48597;49.030;1.822;2023-07-31T09:50:47;100435.94;;;24.23;51.16
62544;BME280;48597;49.030;1.822;2023-07-31T09:53:13;100432.22;;;24.22;51.15
62544;BME280;48597;49.030;1.822;2023-07-31T09:55:39;100429.34;;;24.22;51.05
62544;BME280;48597;49.030;1.822;2023-07-31T09:58:07;100432.22;;;24.22;51.05
62544;BME280;48597;49.030;1.822;2023-07-31T10:00:33;100433.84;;;24.23;50.95
62544;BME280;48597;49.030;1.822;2023-07-31T10:03:00;100427.28;;;24.23;51.08
62544;BME280;48597;49.030;1.822;2023-07-31T10:05:34;100419.44;;;24.23;51.03
62544;BME280;48597;49.030;1.822;2023-07-31T10:07:59;100426.00;;;24.24;51.09
62544;BME280;48597;49.030;1.822;2023-07-31T10:10:26;100430.16;;;24.23;51.09
62544;BME280;48597;49.030;1.822;2023-07-31T10:12:53;100423.56;;;24.22;51.04
62544;BME280;48597;49.030;1.822;2023-07-31T10:15:20;100433.84;;;24.23;51.03
62544;BME280;48597;49.030;1.822;2023-07-31T10:17:52;100430.97;;;24.23;51.14
62544;BME280;48597;49.030;1.822;2023-07-31T10:20:20;100436.72;;;24.23;51.10
62544;BME280;48597;49.030;1.822;2023-07-31T10:22:46;100425.22;;;24.23;51.25
62544;BME280;48597;49.030;1.822;2023-07-31T10:25:12;100418.66;;;24.23;51.17
62544;BME280;48597;49.030;1.822;2023-07-31T10:27:40;100413.69;;;24.23;51.25
62544;BME280;48597;49.030;1.822;2023-07-31T10:30:09;100414.47;;;24.24;51.22
62544;BME280;48597;49.030;1.822;2023-07-31T10:32:35;100417.34;;;24.24;51.07
62544;BME280;48597;49.030;1.822;2023-07-31T10:35:02;100405.03;;;24.23;51.21
62544;BME280;48597;49.030;1.822;2023-07-31T10:37:31;100406.63;;;24.24;51.23
62544;BME280;48597;49.030;1.822;2023-07-31T10:40:10;100416.56;;;24.23;51.14
62544;BME280;48597;49.030;1.822;2023-07-31T10:42:54;100425.22;;;24.23;51.21
62544;BME280;48597;49.030;1.822;2023-07-31T10:45:42;100414.47;;;24.24;51.11
62544;BME280;48597;49.030;1.822;2023-07-31T10:48:15;100418.66;;;24.23;51.19
62544;BME280;48597;49.030;1.822;2023-07-31T10:51:01;100412.06;;;24.22;51.19
62544;BME280;48597;49.030;1.822;2023-07-31T10:53:32;100422.78;;;24.21;51.19
62544;BME280;48597;49.030;1.822;2023-07-31T10:56:08;100420.69;;;24.22;51.29
62544;BME280;48597;49.030;1.822;2023-07-31T10:58:36;100418.66;;;24.23;51.23
62544;BME280;48597;49.030;1.822;2023-07-31T11:01:03;100420.69;;;24.22;51.11
62544;BME280;48597;49.030;1.822;2023-07-31T11:03:42;100418.66;;;24.23;51.12
62544;BME280;48597;49.030;1.822;2023-07-31T11:06:08;100426.47;;;24.22;51.18
62544;BME280;48597;49.030;1.822;2023-07-31T11:08:38;100423.56;;;24.22;51.29
62544;BME280;48597;49.030;1.822;2023-07-31T11:11:08;100426.47;;;24.22;51.16
62544;BME280;48597;49.030;1.822;2023-07-31T11:16:07;100423.56;;;24.22;51.09
62544;BME280;48597;49.030;1.822;2023-07-31T11:18:32;100431.41;;;24.21;51.16
62544;BME280;48597;49.030;1.822;2023-07-31T11:20:58;100426.47;;;24.22;51.00
62544;BME280;48597;49.030;1.822;2023-07-31T11:23:23;100423.56;;;24.22;51.04
62544;BME280;48597;49.030;1.822;2023-07-31T11:25:50;100419.44;;;24.23;51.11
62544;BME280;48597;49.030;1.822;2023-07-31T11:28:17;100417.81;;;24.22;51.02
62544;BME280;48597;49.030;1.822;2023-07-31T11:30:44;100427.28;;;24.23;51.06
62544;BME280;48597;49.030;1.822;2023-07-31T11:33:11;100422.78;;;24.21;51.04
62544;BME280;48597;49.030;1.822;2023-07-31T11:35:47;100400.53;;;24.22;51.12
62544;BME280;48597;49.030;1.822;2023-07-31T11:38:24;100399.28;;;24.23;50.86
62544;BME280;48597;49.030;1.822;2023-07-31T11:40:51;100388.22;;;24.21;51.29
62544;BME280;48597;49.030;1.822;2023-07-31T11:43:17;100380.38;;;24.22;51.32
62544;BME280;48597;49.030;1.822;2023-07-31T11:45:48;100372.22;;;24.20;51.25
62544;BME280;48597;49.030;1.822;2023-07-31T11:50:51;100370.94;;;24.21;51.29
62544;BME280;48597;49.030;1.822;2023-07-31T11:53:26;100367.25;;;24.21;51.26
62544;BME280;48597;49.030;1.822;2023-07-31T11:55:54;100369.34;;;24.20;51.44
62544;BME280;48597;49.030;1.822;2023-07-31T11:58:20;100378.78;;;24.21;51.36
62544;BME280;48597;49.030;1.822;2023-07-31T12:00:46;100373.50;;;24.19;51.57
62544;BME280;48597;49.030;1.822;2023-07-31T12:03:12;100362.78;;;24.20;51.35
62544;BME280;48597;49.030;1.822;2023-07-31T12:05:38;100354.16;;;24.20;51.60
62544;BME280;48597;49.030;1.822;2023-07-31T12:08:09;100352.88;;;24.21;51.48
62544;BME280;48597;49.030;1.822;2023-07-31T12:10:36;100344.72;;;24.19;51.59
62544;BME280;48597;49.030;1.822;2023-07-31T12:13:04;100355.44;;;24.19;51.37
62544;BME280;48597;49.030;1.822;2023-07-31T12:15:41;100346.81;;;24.19;51.41
62544;BME280;48597;49.030;1.822;2023-07-31T12:18:11;100343.44;;;24.20;51.50
62544;BME280;48597;49.030;1.822;2023-07-31T12:20:45;100346.81;;;24.19;51.60
62544;BME280;48597;49.030;1.822;2023-07-31T12:23:15;100343.91;;;24.19;51.49
62544;BME280;48597;49.030;1.822;2023-07-31T12:25:41;100333.38;;;24.16;51.61
62544;BME280;48597;49.030;1.822;2023-07-31T12:28:07;100334.97;;;24.17;51.61
62544;BME280;48597;49.030;1.822;2023-07-31T12:30:37;100330.81;;;24.18;51.74
62544;BME280;48597;49.030;1.822;2023-07-31T12:33:04;100339.44;;;24.18;51.71
62544;BME280;48597;49.030;1.822;2023-07-31T12:35:39;100323.75;;;24.19;51.80
62544;BME280;48597;49.030;1.822;2023-07-31T12:38:05;100327.13;;;24.17;51.86
62544;BME280;48597;49.030;1.822;2023-07-31T12:40:31;100322.16;;;24.18;51.61
62544;BME280;48597;49.030;1.822;2023-07-31T12:42:56;100313.53;;;24.18;51.61
62544;BME280;48597;49.030;1.822;2023-07-31T12:45:22;100305.69;;;24.18;51.69
62544;BME280;48597;49.030;1.822;2023-07-31T12:47:48;100316.41;;;24.18;51.70
62544;BME280;48597;49.030;1.822;2023-07-31T12:50:17;100302.81;;;24.18;51.87
62544;BME280;48597;49.030;1.822;2023-07-31T12:52:42;100290.50;;;24.18;51.64
62544;BME280;48597;49.030;1.822;2023-07-31T12:55:07;100286.03;;;24.17;51.87
62544;BME280;48597;49.030;1.822;2023-07-31T12:57:33;100281.84;;;24.18;51.75
62544;BME280;48597;49.030;1.822;2023-07-31T12:59:58;100276.88;;;24.18;51.76
62544;BME280;48597;49.030;1.822;2023-07-31T13:02:23;100274.00;;;24.18;51.78